sensor_id;sensor_type;location;lat;lon;timestamp;P1;durP1;ratioP1;P2;durP2;ratioP2
3197;SDS011;1611;49.394;11.136;2024-03-23T00:55:54;8.90;;;6.17;;
3197;SDS011;1611;49.394;11.136;2024-03-23T00:58:19;9.97;;;6.40;;
3197;SDS011;1611;49.394;11.136;2024-03-23T01:00:46;12.63;;;5.90;;
3197;SDS011;1611;49.394;11.136;2024-03-23T01:03:12;7.63;;;6.83;;
3197;SDS011;1611;49.394;11.136;2024-03-23T01:05:38;9.27;;;6.20;;
3197;SDS011;1611;49.394;11.136;2024-03-23T01:08:04;13.50;;;6.23;;
3197;SDS011;1611;49.394;11.136;2024-03-23T01:10:31;10.50;;;6.63;;
3197;SDS011;1611;49.394;11.136;2024-03-23T01:12:58;9.60;;;6.70;;
3197;SDS011;1611;49.394;11.136;2024-03-23T01:15:25;10.23;;;6.77;;
3197;SDS011;1611;49.394;11.136;2024-03-23T01:17:51;11.73;;;6.20;;
3197;SDS011;1611;49.394;11.136;2024-03-23T01:20:17;10.97;;;6.30;;
3197;SDS011;1611;49.394;11.136;2024-03-23T01:22:43;13.67;;;6.80;;
3197;SDS011;1611;49.394;11.136;2024-03-23T01:25:10;7.60;;;5.53;;
3197;SDS011;1611;49.394;11.136;2024-03-23T01:27:35;7.60;;;6.03;;
3197;SDS011;1611;49.394;11.136;2024-03-23T01:30:04;9.33;;;6.40;;
3197;SDS011;1611;49.394;11.136;2024-03-23T01:32:30;11.80;;;6.50;;
3197;SDS011;1611;49.394;11.136;2024-03-23T01:34:57;11.93;;;5.97;;
3197;SDS011;1611;49.394;11.136;2024-03-23T01:37:23;11.20;;;6.50;;
3197;SDS011;1611;49.394;11.136;2024-03-23T01:39:49;8.40;;;6.30;;
3197;SDS011;1611;49.394;11.136;2024-03-23T01:42:16;8.27;;;5.67;;
3197;SDS011;1611;49.394;11.136;2024-03-23T01:44:42;14.93;;;6.23;;
3197;SDS011;1611;49.394;11.136;2024-03-23T01:47:09;13.50;;;6.60;;
3197;SDS011;1611;49.394;11.136;2024-03-23T01:49:36;7.60;;;5.60;;
3197;SDS011;1611;49.394;11.136;2024-03-23T01:52:02;6.20;;;5.63;;
3197;SDS011;1611;49.394;11.136;2024-03-23T01:54:29;7.80;;;6.47;;
3197;SDS011;1611;49.394;11.136;2024-03-23T01:56:55;9.87;;;6.40;;
3197;SDS011;1611;49.394;11.136;2024-03-23T01:59:22;9.10;;;5.90;;
3197;SDS011;1611;49.394;11.136;2024-03-23T02:01:48;8.13;;;6.50;;
3197;SDS011;1611;49.394;11.136;2024-03-23T02:04:16;6.30;;;5.17;;
3197;SDS011;1611;49.394;11.136;2024-03-23T02:06:42;7.33;;;5.77;;
3197;SDS011;1611;49.394;11.136;2024-03-23T02:09:09;9.43;;;5.67;;
3197;SDS011;1611;49.394;11.136;2024-03-23T02:11:34;11.17;;;6.27;;
3197;SDS011;1611;49.394;11.136;2024-03-23T02:14:01;9.63;;;6.47;;
3197;SDS011;1611;49.394;11.136;2024-03-23T02:16:27;7.50;;;5.50;;
3197;SDS011;1611;49.394;11.136;2024-03-23T02:18:53;12.03;;;5.30;;
3197;SDS011;1611;49.394;11.136;2024-03-23T02:21:20;7.23;;;5.70;;
3197;SDS011;1611;49.394;11.136;2024-03-23T02:23:48;11.90;;;6.40;;
3197;SDS011;1611;49.394;11.136;2024-03-23T02:26:14;7.67;;;6.10;;
3197;SDS011;1611;49.394;11.136;2024-03-23T02:28:42;5.83;;;5.30;;
3197;SDS011;1611;49.394;11.136;2024-03-23T02:31:07;8.37;;;5.87;;
3197;SDS011;1611;49.394;11.136;2024-03-23T02:33:34;9.60;;;5.50;;
3197;SDS011;1611;49.394;11.136;2024-03-23T02:36:03;13.13;;;6.00;;
3197;SDS011;1611;49.394;11.136;2024-03-23T02:38:30;13.87;;;6.23;;
3197;SDS011;1611;49.394;11.136;2024-03-23T02:41:02;7.77;;;5.93;;
3197;SDS011;1611;49.394;11.136;2024-03-23T02:43:29;10.00;;;6.20;;
3197;SDS011;1611;49.394;11.136;2024-03-23T02:45:54;7.83;;;6.00;;
3197;SDS011;1611;49.394;11.136;2024-03-23T02:48:21;7.63;;;5.53;;
3197;SDS011;1611;49.394;11.136;2024-03-23T02:50:47;19.53;;;6.23;;
3197;SDS011;1611;49.394;11.136;2024-03-23T02:53:13;6.13;;;5.43;;
3197;SDS011;1611;49.394;11.136;2024-03-23T02:55:39;10.87;;;5.83;;
3197;SDS011;1611;49.394;11.136;2024-03-23T02:58:07;16.33;;;6.13;;
3197;SDS011;1611;49.394;11.136;2024-03-23T03:00:33;7.37;;;5.60;;
3197;SDS011;1611;49.394;11.136;2024-03-23T03:02:59;5.73;;;5.23;;
3197;SDS011;1611;49.394;11.136;2024-03-23T03:05:25;10.60;;;5.17;;
3197;SDS011;1611;49.394;11.136;2024-03-23T03:07:51;10.90;;;5.47;;
3197;SDS011;1611;49.394;11.136;2024-03-23T03:10:17;6.03;;;5.53;;
3197;SDS011;1611;49.394;11.136;2024-03-23T03:12:44;13.10;;;5.50;;
3197;SDS011;1611;49.394;11.136;2024-03-23T03:15:11;10.93;;;5.60;;
3197;SDS011;1611;49.394;11.136;2024-03-23T03:17:37;7.70;;;5.40;;
3197;SDS011;1611;49.394;11.136;2024-03-23T03:20:03;6.73;;;5.60;;
3197;SDS011;1611;49.394;11.136;2024-03-23T03:22:31;9.70;;;6.50;;
3197;SDS011;1611;49.394;11.136;2024-03-23T03:24:56;7.07;;;6.23;;
3197;SDS011;1611;49.394;11.136;2024-03-23T03:27:25;11.83;;;6.83;;
3197;SDS011;1611;49.394;11.136;2024-03-23T03:29:50;8.27;;;6.47;;
3197;SDS011;1611;49.394;11.136;2024-03-23T03:32:18;9.07;;;7.93;;
3197;SDS011;1611;49.394;11.136;2024-03-23T03:34:44;11.53;;;8.13;;
3197;SDS011;1611;49.394;11.136;2024-03-23T03:37:11;13.27;;;6.20;;
3197;SDS011;1611;49.394;11.136;2024-03-23T03:39:36;12.37;;;7.17;;
3197;SDS011;1611;49.394;11.136;2024-03-23T03:42:03;14.40;;;8.93;;
3197;SDS011;1611;49.394;11.136;2024-03-23T03:44:31;12.60;;;6.70;;
3197;SDS011;1611;49.394;11.136;2024-03-23T03:46:58;15.93;;;7.90;;
3197;SDS011;1611;49.394;11.136;2024-03-23T03:49:25;7.43;;;6.73;;
3197;SDS011;1611;49.394;11.136;2024-03-23T03:51:52;12.20;;;8.37;;
3197;SDS011;1611;49.394;11.136;2024-03-23T03:54:17;9.80;;;7.63;;
3197;SDS011;1611;49.394;11.136;2024-03-23T03:56:44;17.10;;;10.00;;
3197;SDS011;1611;49.394;11.136;2024-03-23T03:59:10;22.70;;;9.30;;
3197;SDS011;1611;49.394;11.136;2024-03-23T04:01:36;11.73;;;8.40;;
3197;SDS011;1611;49.394;11.136;2024-03-23T04:04:02;11.70;;;7.77;;
3197;SDS011;1611;49.394;11.136;2024-03-23T04:06:30;8.10;;;7.20;;
3197;SDS011;1611;49.394;11.136;2024-03-23T04:08:56;10.63;;;8.27;;
3197;SDS011;1611;49.394;11.136;2024-03-23T04:11:22;13.30;;;8.57;;
3197;SDS011;1611;49.394;11.136;2024-03-23T04:13:48;11.90;;;7.53;;
3197;SDS011;1611;49.394;11.136;2024-03-23T04:16:24;10.23;;;8.73;;
3197;SDS011;1611;49.394;11.136;2024-03-23T04:18:51;12.00;;;7.77;;
3197;SDS011;1611;49.394;11.136;2024-03-23T04:21:18;11.17;;;6.57;;
3197;SDS011;1611;49.394;11.136;2024-03-23T04:23:45;9.77;;;7.13;;
3197;SDS011;1611;49.394;11.136;2024-03-23T04:26:11;11.70;;;7.53;;
3197;SDS011;1611;49.394;11.136;2024-03-23T04:28:37;10.90;;;8.33;;
3197;SDS011;1611;49.394;11.136;2024-03-23T04:31:04;13.33;;;8.10;;
3197;SDS011;1611;49.394;11.136;2024-03-23T04:33:30;10.27;;;8.20;;
3197;SDS011;1611;49.394;11.136;2024-03-23T04:35:57;11.97;;;7.03;;
3197;SDS011;1611;49.394;11.136;2024-03-23T04:38:22;13.23;;;7.20;;
3197;SDS011;1611;49.394;11.136;2024-03-23T04:40:54;8.27;;;7.27;;
3197;SDS011;1611;49.394;11.136;2024-03-23T04:43:21;10.27;;;7.10;;
3197;SDS011;1611;49.394;11.136;2024-03-23T04:45:48;10.00;;;6.90;;
3197;SDS011;1611;49.394;11.136;2024-03-23T04:48:15;17.00;;;7.63;;
3197;SDS011;1611;49.394;11.136;2024-03-23T04:50:41;10.93;;;7.87;;
3197;SDS011;1611;49.394;11.136;2024-03-23T04:53:07;14.87;;;7.97;;
3197;SDS011;1611;49.394;11.136;2024-03-23T04:55:34;11.60;;;7.17;;
3197;SDS011;1611;49.394;11.136;2024-03-23T04:58:02;22.70;;;7.50;;
3197;SDS011;1611;49.394;11.136;2024-03-23T05:00:28;18.60;;;7.20;;
3197;SDS011;1611;49.394;11.136;2024-03-23T05:02:54;11.93;;;7.70;;
3197;SDS011;1611;49.394;11.136;2024-03-23T05:05:21;8.73;;;6.80;;
3197;SDS011;1611;49.394;11.136;2024-03-23T05:07:46;10.50;;;7.50;;
3197;SDS011;1611;49.394;11.136;2024-03-23T05:10:13;11.50;;;7.17;;
3197;SDS011;1611;49.394;11.136;2024-03-23T05:12:39;19.90;;;7.93;;
3197;SDS011;1611;49.394;11.136;2024-03-23T05:15:07;12.93;;;7.57;;
3197;SDS011;1611;49.394;11.136;2024-03-23T05:17:33;12.03;;;7.77;;
3197;SDS011;1611;49.394;11.136;2024-03-23T05:19:59;14.10;;;7.60;;
3197;SDS011;1611;49.394;11.136;2024-03-23T05:22:25;10.17;;;7.10;;
3197;SDS011;1611;49.394;11.136;2024-03-23T05:24:52;8.93;;;6.90;;
3197;SDS011;1611;49.394;11.136;2024-03-23T05:27:18;10.30;;;7.03;;
3197;SDS011;1611;49.394;11.136;2024-03-23T05:29:45;8.30;;;6.67;;
3197;SDS011;1611;49.394;11.136;2024-03-23T05:32:13;10.43;;;7.20;;
3197;SDS011;1611;49.394;11.136;2024-03-23T05:34:40;8.73;;;7.03;;
3197;SDS011;1611;49.394;11.136;2024-03-23T05:37:06;9.47;;;6.47;;
3197;SDS011;1611;49.394;11.136;2024-03-23T05:39:32;9.23;;;6.70;;
3197;SDS011;1611;49.394;11.136;2024-03-23T05:41:58;12.00;;;6.80;;
3197;SDS011;1611;49.394;11.136;2024-03-23T05:44:25;10.83;;;6.60;;
3197;SDS011;1611;49.394;11.136;2024-03-23T05:46:50;7.50;;;6.50;;
3197;SDS011;1611;49.394;11.136;2024-03-23T05:49:18;6.70;;;6.00;;
3197;SDS011;1611;49.394;11.136;2024-03-23T05:51:45;7.27;;;6.07;;
3197;SDS011;1611;49.394;11.136;2024-03-23T05:54:11;12.33;;;6.50;;
3197;SDS011;1611;49.394;11.136;2024-03-23T05:56:38;11.30;;;6.03;;
3197;SDS011;1611;49.394;11.136;2024-03-23T05:59:04;8.57;;;6.10;;
3197;SDS011;1611;49.394;11.136;2024-03-23T06:01:31;17.63;;;7.60;;
3197;SDS011;1611;49.394;11.136;2024-03-23T06:03:57;6.70;;;5.57;;
3197;SDS011;1611;49.394;11.136;2024-03-23T06:06:27;7.67;;;5.10;;
3197;SDS011;1611;49.394;11.136;2024-03-23T06:08:55;6.53;;;5.93;;
3197;SDS011;1611;49.394;11.136;2024-03-23T06:11:21;8.40;;;5.90;;
3197;SDS011;1611;49.394;11.136;2024-03-23T06:13:47;15.00;;;5.30;;
3197;SDS011;1611;49.394;11.136;2024-03-23T06:16:14;6.67;;;4.77;;
3197;SDS011;1611;49.394;11.136;2024-03-23T06:18:39;7.97;;;4.90;;
3197;SDS011;1611;49.394;11.136;2024-03-23T06:21:08;11.90;;;5.30;;
3197;SDS011;1611;49.394;11.136;2024-03-23T06:23:39;7.70;;;5.53;;
3197;SDS011;1611;49.394;11.136;2024-03-23T06:26:06;8.30;;;6.33;;
3197;SDS011;1611;49.394;11.136;2024-03-23T06:28:32;8.87;;;5.93;;
3197;SDS011;1611;49.394;11.136;2024-03-23T06:30:59;9.83;;;8.40;;
3197;SDS011;1611;49.394;11.136;2024-03-23T06:33:24;9.27;;;7.33;;
3197;SDS011;1611;49.394;11.136;2024-03-23T06:35:51;12.63;;;9.40;;
3197;SDS011;1611;49.394;11.136;2024-03-23T06:38:17;13.20;;;9.37;;
3197;SDS011;1611;49.394;11.136;2024-03-23T06:40:45;11.20;;;8.60;;
3197;SDS011;1611;49.394;11.136;2024-03-23T06:43:12;13.03;;;8.80;;
3197;SDS011;1611;49.394;11.136;2024-03-23T06:45:39;15.67;;;10.03;;
3197;SDS011;1611;49.394;11.136;2024-03-23T06:48:05;11.30;;;9.63;;
3197;SDS011;1611;49.394;11.136;2024-03-23T06:50:32;10.60;;;9.50;;
3197;SDS011;1611;49.394;11.136;2024-03-23T06:52:58;13.77;;;10.70;;
3197;SDS011;1611;49.394;11.136;2024-03-23T06:55:26;11.83;;;10.20;;
3197;SDS011;1611;49.394;11.136;2024-03-23T06:57:54;14.60;;;11.00;;
3197;SDS011;1611;49.394;11.136;2024-03-23T07:00:20;14.23;;;10.37;;
3197;SDS011;1611;49.394;11.136;2024-03-23T07:02:46;13.13;;;9.97;;
3197;SDS011;1611;49.394;11.136;2024-03-23T07:05:13;11.20;;;9.97;;
3197;SDS011;1611;49.394;11.136;2024-03-23T07:07:38;13.27;;;10.00;;
3197;SDS011;1611;49.394;11.136;2024-03-23T07:10:05;14.40;;;10.37;;
3197;SDS011;1611;49.394;11.136;2024-03-23T07:12:32;12.43;;;9.90;;
3197;SDS011;1611;49.394;11.136;2024-03-23T07:15:00;17.03;;;10.17;;
3197;SDS011;1611;49.394;11.136;2024-03-23T07:17:25;14.80;;;10.67;;
3197;SDS011;1611;49.394;11.136;2024-03-23T07:19:52;12.40;;;10.10;;
3197;SDS011;1611;49.394;11.136;2024-03-23T07:22:18;13.50;;;9.50;;
3197;SDS011;1611;49.394;11.136;2024-03-23T07:24:44;19.00;;;10.93;;
3197;SDS011;1611;49.394;11.136;2024-03-23T07:27:10;18.80;;;8.93;;
3197;SDS011;1611;49.394;11.136;2024-03-23T07:29:37;11.77;;;8.97;;
3197;SDS011;1611;49.394;11.136;2024-03-23T07:32:04;10.63;;;8.30;;
3197;SDS011;1611;49.394;11.136;2024-03-23T07:34:31;11.47;;;8.33;;
3197;SDS011;1611;49.394;11.136;2024-03-23T07:36:56;10.00;;;8.47;;
3197;SDS011;1611;49.394;11.136;2024-03-23T07:39:23;11.27;;;9.23;;
3197;SDS011;1611;49.394;11.136;2024-03-23T07:41:49;11.00;;;8.47;;
3197;SDS011;1611;49.394;11.136;2024-03-23T07:44:16;10.43;;;8.47;;
3197;SDS011;1611;49.394;11.136;2024-03-23T07:46:42;9.30;;;8.30;;
3197;SDS011;1611;49.394;11.136;2024-03-23T07:49:10;16.67;;;9.13;;
3197;SDS011;1611;49.394;11.136;2024-03-23T07:51:35;14.40;;;8.67;;
3197;SDS011;1611;49.394;11.136;2024-03-23T07:54:04;15.73;;;8.47;;
3197;SDS011;1611;49.394;11.136;2024-03-23T07:56:30;15.33;;;8.00;;
3197;SDS011;1611;49.394;11.136;2024-03-23T07:58:57;9.07;;;7.53;;
3197;SDS011;1611;49.394;11.136;2024-03-23T08:01:22;13.47;;;8.00;;
3197;SDS011;1611;49.394;11.136;2024-03-23T08:03:49;14.73;;;7.90;;
3197;SDS011;1611;49.394;11.136;2024-03-23T08:06:17;9.17;;;6.80;;
3197;SDS011;1611;49.394;11.136;2024-03-23T08:08:45;9.00;;;7.50;;
3197;SDS011;1611;49.394;11.136;2024-03-23T08:11:12;15.00;;;7.87;;
3197;SDS011;1611;49.394;11.136;2024-03-23T08:13:39;8.83;;;7.70;;
3197;SDS011;1611;49.394;11.136;2024-03-23T08:16:06;14.63;;;7.90;;
3197;SDS011;1611;49.394;11.136;2024-03-23T08:18:33;9.87;;;7.37;;
3197;SDS011;1611;49.394;11.136;2024-03-23T08:21:00;11.27;;;7.53;;
3197;SDS011;1611;49.394;11.136;2024-03-23T08:23:29;9.73;;;7.13;;
3197;SDS011;1611;49.394;11.136;2024-03-23T08:25:57;9.90;;;7.30;;
3197;SDS011;1611;49.394;11.136;2024-03-23T08:28:24;11.13;;;7.43;;
3197;SDS011;1611;49.394;11.136;2024-03-23T08:30:49;12.90;;;8.27;;
3197;SDS011;1611;49.394;11.136;2024-03-23T08:33:16;6.50;;;4.83;;
3197;SDS011;1611;49.394;11.136;2024-03-23T08:35:42;7.20;;;4.60;;
3197;SDS011;1611;49.394;11.136;2024-03-23T08:38:08;6.83;;;4.50;;
3197;SDS011;1611;49.394;11.136;2024-03-23T08:40:35;4.63;;;4.20;;
3197;SDS011;1611;49.394;11.136;2024-03-23T08:43:02;4.20;;;3.87;;
3197;SDS011;1611;49.394;11.136;2024-03-23T08:45:28;5.47;;;4.97;;
3197;SDS011;1611;49.394;11.136;2024-03-23T08:47:55;4.93;;;4.53;;
3197;SDS011;1611;49.394;11.136;2024-03-23T08:50:20;7.03;;;4.40;;
3197;SDS011;1611;49.394;11.136;2024-03-23T08:52:48;3.77;;;3.53;;
3197;SDS011;1611;49.394;11.136;2024-03-23T08:55:16;2.63;;;2.53;;
3197;SDS011;1611;49.394;11.136;2024-03-23T08:57:44;2.93;;;2.77;;
3197;SDS011;1611;49.394;11.136;2024-03-23T09:00:10;2.33;;;2.23;;
3197;SDS011;1611;49.394;11.136;2024-03-23T09:02:37;2.30;;;2.20;;
3197;SDS011;1611;49.394;11.136;2024-03-23T09:05:03;2.03;;;1.87;;
3197;SDS011;1611;49.394;11.136;2024-03-23T09:07:30;2.00;;;2.00;;
3197;SDS011;1611;49.394;11.136;2024-03-23T09:09:56;2.40;;;2.30;;
3197;SDS011;1611;49.394;11.136;2024-03-23T09:12:23;2.33;;;2.13;;
3197;SDS011;1611;49.394;11.136;2024-03-23T09:14:50;2.13;;;2.03;;
3197;SDS011;1611;49.394;11.136;2024-03-23T09:17:18;3.10;;;2.20;;
3197;SDS011;1611;49.394;11.136;2024-03-23T09:19:44;2.00;;;1.90;;
3197;SDS011;1611;49.394;11.136;2024-03-23T09:22:10;2.03;;;1.93;;
3197;SDS011;1611;49.394;11.136;2024-03-23T09:24:36;7.73;;;2.13;;
3197;SDS011;1611;49.394;11.136;2024-03-23T09:27:04;1.33;;;1.33;;
3197;SDS011;1611;49.394;11.136;2024-03-23T09:29:30;1.43;;;1.37;;
3197;SDS011;1611;49.394;11.136;2024-03-23T09:31:58;1.87;;;1.87;;
3197;SDS011;1611;49.394;11.136;2024-03-23T09:34:23;1.37;;;1.27;;
3197;SDS011;1611;49.394;11.136;2024-03-23T09:36:50;1.20;;;1.10;;
3197;SDS011;1611;49.394;11.136;2024-03-23T09:39:16;1.10;;;1.10;;
3197;SDS011;1611;49.394;11.136;2024-03-23T09:41:43;1.03;;;1.03;;
3197;SDS011;1611;49.394;11.136;2024-03-23T09:44:09;1.20;;;1.20;;
3197;SDS011;1611;49.394;11.136;2024-03-23T09:46:35;0.80;;;0.80;;
3197;SDS011;1611;49.394;11.136;2024-03-23T09:49:02;0.90;;;0.90;;
3197;SDS011;1611;49.394;11.136;2024-03-23T09:51:30;1.00;;;1.00;;
3197;SDS011;1611;49.394;11.136;2024-03-23T09:53:55;1.33;;;0.93;;
3197;SDS011;1611;49.394;11.136;2024-03-23T09:56:23;0.90;;;0.90;;
3197;SDS011;1611;49.394;11.136;2024-03-23T09:58:49;1.00;;;0.90;;
3197;SDS011;1611;49.394;11.136;2024-03-23T10:01:16;1.00;;;1.00;;
3197;SDS011;1611;49.394;11.136;2024-03-23T10:03:43;2.05;;;0.98;;
3197;SDS011;1611;49.394;11.136;2024-03-23T10:06:12;0.90;;;0.73;;
3197;SDS011;1611;49.394;11.136;2024-03-23T10:08:37;0.77;;;0.77;;
3197;SDS011;1611;49.394;11.136;2024-03-23T10:11:14;0.77;;;0.70;;
3197;SDS011;1611;49.394;11.136;2024-03-23T10:13:41;0.70;;;0.70;;
3197;SDS011;1611;49.394;11.136;2024-03-23T10:16:09;0.73;;;0.73;;
3197;SDS011;1611;49.394;11.136;2024-03-23T10:18:37;0.70;;;0.70;;
3197;SDS011;1611;49.394;11.136;2024-03-23T10:21:07;1.03;;;1.00;;
3197;SDS011;1611;49.394;11.136;2024-03-23T10:23:37;1.10;;;1.10;;
3197;SDS011;1611;49.394;11.136;2024-03-23T10:26:15;1.00;;;1.00;;
3197;SDS011;1611;49.394;11.136;2024-03-23T10:28:52;3.03;;;0.90;;
3197;SDS011;1611;49.394;11.136;2024-03-23T10:31:25;2.10;;;0.87;;
3197;SDS011;1611;49.394;11.136;2024-03-23T10:33:51;0.90;;;0.90;;
3197;SDS011;1611;49.394;11.136;2024-03-23T10:36:19;5.30;;;1.00;;
3197;SDS011;1611;49.394;11.136;2024-03-23T10:38:47;0.93;;;0.93;;
3197;SDS011;1611;49.394;11.136;2024-03-23T10:41:15;1.45;;;1.40;;
3197;SDS011;1611;49.394;11.136;2024-03-23T10:43:41;1.00;;;1.00;;
3197;SDS011;1611;49.394;11.136;2024-03-23T10:46:10;1.10;;;1.10;;
3197;SDS011;1611;49.394;11.136;2024-03-23T10:48:37;2.30;;;1.40;;
3197;SDS011;1611;49.394;11.136;2024-03-23T10:51:03;1.20;;;1.20;;
3197;SDS011;1611;49.394;11.136;2024-03-23T10:53:31;1.17;;;1.13;;
3197;SDS011;1611;49.394;11.136;2024-03-23T10:56:00;1.20;;;1.20;;
3197;SDS011;1611;49.394;11.136;2024-03-23T10:58:28;1.87;;;1.63;;
3197;SDS011;1611;49.394;11.136;2024-03-23T11:00:56;1.93;;;1.70;;
3197;SDS011;1611;49.394;11.136;2024-03-23T11:03:30;2.80;;;1.70;;
3197;SDS011;1611;49.394;11.136;2024-03-23T11:05:56;2.17;;;1.80;;
3197;SDS011;1611;49.394;11.136;2024-03-23T11:08:32;1.50;;;1.30;;
3197;SDS011;1611;49.394;11.136;2024-03-23T11:11:14;1.97;;;1.60;;
3197;SDS011;1611;49.394;11.136;2024-03-23T11:13:42;2.40;;;2.03;;
3197;SDS011;1611;49.394;11.136;2024-03-23T11:16:12;2.23;;;1.80;;
3197;SDS011;1611;49.394;11.136;2024-03-23T11:18:40;2.57;;;2.00;;
3197;SDS011;1611;49.394;11.136;2024-03-23T11:21:06;4.03;;;2.23;;
3197;SDS011;1611;49.394;11.136;2024-03-23T11:23:33;4.10;;;2.00;;
3197;SDS011;1611;49.394;11.136;2024-03-23T11:25:59;5.33;;;1.97;;
3197;SDS011;1611;49.394;11.136;2024-03-23T11:28:27;3.40;;;2.03;;
3197;SDS011;1611;49.394;11.136;2024-03-23T11:30:53;3.40;;;2.07;;
3197;SDS011;1611;49.394;11.136;2024-03-23T11:33:19;2.13;;;1.93;;
3197;SDS011;1611;49.394;11.136;2024-03-23T11:35:46;1.90;;;1.80;;
3197;SDS011;1611;49.394;11.136;2024-03-23T11:38:13;3.70;;;2.40;;
3197;SDS011;1611;49.394;11.136;2024-03-23T11:40:40;2.77;;;2.43;;
3197;SDS011;1611;49.394;11.136;2024-03-23T11:43:09;2.80;;;2.20;;
3197;SDS011;1611;49.394;11.136;2024-03-23T11:45:38;3.33;;;2.20;;
3197;SDS011;1611;49.394;11.136;2024-03-23T11:48:07;4.18;;;2.20;;
3197;SDS011;1611;49.394;11.136;2024-03-23T11:50:34;3.80;;;2.33;;
3197;SDS011;1611;49.394;11.136;2024-03-23T11:53:06;3.83;;;2.70;;
3197;SDS011;1611;49.394;11.136;2024-03-23T11:55:41;5.00;;;2.70;;
3197;SDS011;1611;49.394;11.136;2024-03-23T11:58:09;5.40;;;2.93;;
3197;SDS011;1611;49.394;11.136;2024-03-23T12:00:35;4.57;;;2.40;;
3197;SDS011;1611;49.394;11.136;2024-03-23T12:03:04;3.57;;;2.20;;
3197;SDS011;1611;49.394;11.136;2024-03-23T12:05:31;5.23;;;2.70;;
3197;SDS011;1611;49.394;11.136;2024-03-23T12:10:44;4.47;;;2.50;;
3197;SDS011;1611;49.394;11.136;2024-03-23T12:13:14;4.70;;;2.50;;
3197;SDS011;1611;49.394;11.136;2024-03-23T12:15:42;2.97;;;2.77;;
3197;SDS011;1611;49.394;11.136;2024-03-23T12:18:10;4.87;;;2.87;;
3197;SDS011;1611;49.394;11.136;2024-03-23T12:20:37;2.47;;;2.27;;
3197;SDS011;1611;49.394;11.136;2024-03-23T12:23:05;6.13;;;2.20;;
3197;SDS011;1611;49.394;11.136;2024-03-23T12:25:31;3.90;;;2.50;;
3197;SDS011;1611;49.394;11.136;2024-03-23T12:27:58;4.20;;;2.37;;
3197;SDS011;1611;49.394;11.136;2024-03-23T12:30:24;7.40;;;2.30;;
3197;SDS011;1611;49.394;11.136;2024-03-23T12:32:51;5.07;;;2.90;;
3197;SDS011;1611;49.394;11.136;2024-03-23T12:35:18;4.37;;;2.30;;
3197;SDS011;1611;49.394;11.136;2024-03-23T12:37:45;11.33;;;2.90;;
3197;SDS011;1611;49.394;11.136;2024-03-23T12:40:10;3.20;;;2.30;;
3197;SDS011;1611;49.394;11.136;2024-03-23T12:42:37;5.47;;;2.90;;
3197;SDS011;1611;49.394;11.136;2024-03-23T12:45:03;4.10;;;2.13;;
3197;SDS011;1611;49.394;11.136;2024-03-23T12:47:30;8.50;;;3.27;;
3197;SDS011;1611;49.394;11.136;2024-03-23T12:49:56;5.73;;;2.83;;
3197;SDS011;1611;49.394;11.136;2024-03-23T12:52:24;6.57;;;2.77;;
3197;SDS011;1611;49.394;11.136;2024-03-23T12:54:53;7.20;;;2.77;;
3197;SDS011;1611;49.394;11.136;2024-03-23T12:57:21;6.90;;;3.37;;
3197;SDS011;1611;49.394;11.136;2024-03-23T12:59:47;5.10;;;2.97;;
3197;SDS011;1611;49.394;11.136;2024-03-23T13:02:16;5.43;;;3.10;;
3197;SDS011;1611;49.394;11.136;2024-03-23T13:04:42;6.07;;;3.10;;
3197;SDS011;1611;49.394;11.136;2024-03-23T13:07:09;8.10;;;3.03;;
3197;SDS011;1611;49.394;11.136;2024-03-23T13:09:36;5.83;;;2.80;;
3197;SDS011;1611;49.394;11.136;2024-03-23T13:12:03;5.73;;;3.13;;
3197;SDS011;1611;49.394;11.136;2024-03-23T13:14:28;7.03;;;3.00;;
3197;SDS011;1611;49.394;11.136;2024-03-23T13:16:55;3.97;;;2.40;;
3197;SDS011;1611;49.394;11.136;2024-03-23T13:19:21;15.23;;;3.87;;
3197;SDS011;1611;49.394;11.136;2024-03-23T13:21:51;9.20;;;3.33;;
3197;SDS011;1611;49.394;11.136;2024-03-23T13:24:18;5.97;;;3.10;;
3197;SDS011;1611;49.394;11.136;2024-03-23T13:26:49;5.13;;;2.97;;
3197;SDS011;1611;49.394;11.136;2024-03-23T13:29:15;8.13;;;3.10;;
3197;SDS011;1611;49.394;11.136;2024-03-23T13:31:42;5.27;;;3.00;;
3197;SDS011;1611;49.394;11.136;2024-03-23T13:34:08;5.20;;;3.07;;
3197;SDS011;1611;49.394;11.136;2024-03-23T13:36:34;8.17;;;4.00;;
3197;SDS011;1611;49.394;11.136;2024-03-23T13:39:00;5.50;;;3.10;;
3197;SDS011;1611;49.394;11.136;2024-03-23T13:41:30;4.10;;;2.90;;
3197;SDS011;1611;49.394;11.136;2024-03-23T13:43:57;7.70;;;3.43;;
3197;SDS011;1611;49.394;11.136;2024-03-23T13:46:24;5.37;;;3.30;;
3197;SDS011;1611;49.394;11.136;2024-03-23T13:48:49;5.50;;;3.17;;
3197;SDS011;1611;49.394;11.136;2024-03-23T13:51:22;7.07;;;2.93;;
3197;SDS011;1611;49.394;11.136;2024-03-23T13:53:49;5.60;;;2.73;;
3197;SDS011;1611;49.394;11.136;2024-03-23T13:56:16;7.03;;;2.90;;
3197;SDS011;1611;49.394;11.136;2024-03-23T13:58:41;7.80;;;3.03;;
3197;SDS011;1611;49.394;11.136;2024-03-23T14:01:13;10.60;;;3.20;;
3197;SDS011;1611;49.394;11.136;2024-03-23T14:03:39;12.73;;;3.37;;
3197;SDS011;1611;49.394;11.136;2024-03-23T14:06:06;4.47;;;3.00;;
3197;SDS011;1611;49.394;11.136;2024-03-23T14:08:32;6.80;;;3.13;;
3197;SDS011;1611;49.394;11.136;2024-03-23T14:11:01;7.37;;;3.40;;
3197;SDS011;1611;49.394;11.136;2024-03-23T14:13:28;7.60;;;2.93;;
3197;SDS011;1611;49.394;11.136;2024-03-23T14:15:55;4.30;;;2.97;;
3197;SDS011;1611;49.394;11.136;2024-03-23T14:18:23;11.90;;;3.70;;
3197;SDS011;1611;49.394;11.136;2024-03-23T14:20:49;11.30;;;3.40;;
3197;SDS011;1611;49.394;11.136;2024-03-23T14:23:16;3.50;;;2.87;;
3197;SDS011;1611;49.394;11.136;2024-03-23T14:25:42;7.97;;;2.90;;
3197;SDS011;1611;49.394;11.136;2024-03-23T14:28:08;3.70;;;2.60;;
3197;SDS011;1611;49.394;11.136;2024-03-23T14:30:39;5.50;;;2.20;;
3197;SDS011;1611;49.394;11.136;2024-03-23T14:33:06;9.07;;;3.40;;
3197;SDS011;1611;49.394;11.136;2024-03-23T14:35:33;7.60;;;3.00;;
3197;SDS011;1611;49.394;11.136;2024-03-23T14:37:59;5.50;;;2.63;;
3197;SDS011;1611;49.394;11.136;2024-03-23T14:40:25;6.40;;;2.87;;
3197;SDS011;1611;49.394;11.136;2024-03-23T14:42:52;6.40;;;3.03;;
3197;SDS011;1611;49.394;11.136;2024-03-23T14:45:18;6.67;;;2.83;;
3197;SDS011;1611;49.394;11.136;2024-03-23T14:47:45;5.90;;;2.80;;
3197;SDS011;1611;49.394;11.136;2024-03-23T14:50:11;6.57;;;2.50;;
3197;SDS011;1611;49.394;11.136;2024-03-23T14:52:41;7.03;;;3.00;;
3197;SDS011;1611;49.394;11.136;2024-03-23T14:55:08;4.63;;;2.93;;
3197;SDS011;1611;49.394;11.136;2024-03-23T14:57:35;2.97;;;2.30;;
3197;SDS011;1611;49.394;11.136;2024-03-23T15:00:01;5.40;;;2.77;;
3197;SDS011;1611;49.394;11.136;2024-03-23T15:02:30;3.63;;;3.07;;
3197;SDS011;1611;49.394;11.136;2024-03-23T15:04:57;6.37;;;2.83;;
3197;SDS011;1611;49.394;11.136;2024-03-23T15:07:24;8.57;;;2.50;;
3197;SDS011;1611;49.394;11.136;2024-03-23T15:09:51;6.63;;;2.90;;
3197;SDS011;1611;49.394;11.136;2024-03-23T15:12:18;9.40;;;2.93;;
3197;SDS011;1611;49.394;11.136;2024-03-23T15:14:44;6.33;;;2.80;;
3197;SDS011;1611;49.394;11.136;2024-03-23T15:17:12;7.37;;;2.30;;
3197;SDS011;1611;49.394;11.136;2024-03-23T15:19:38;9.90;;;3.30;;
3197;SDS011;1611;49.394;11.136;2024-03-23T15:22:05;8.80;;;3.30;;
3197;SDS011;1611;49.394;11.136;2024-03-23T15:24:30;6.20;;;3.50;;
3197;SDS011;1611;49.394;11.136;2024-03-23T15:27:00;4.60;;;3.17;;
3197;SDS011;1611;49.394;11.136;2024-03-23T15:29:26;5.43;;;3.00;;
3197;SDS011;1611;49.394;11.136;2024-03-23T15:31:52;3.30;;;3.00;;
3197;SDS011;1611;49.394;11.136;2024-03-23T15:34:18;2.70;;;2.50;;
3197;SDS011;1611;49.394;11.136;2024-03-23T15:36:46;6.20;;;2.50;;
3197;SDS011;1611;49.394;11.136;2024-03-23T15:39:13;2.07;;;1.97;;
3197;SDS011;1611;49.394;11.136;2024-03-23T15:41:39;3.33;;;1.90;;
3197;SDS011;1611;49.394;11.136;2024-03-23T15:44:06;4.60;;;2.50;;
3197;SDS011;1611;49.394;11.136;2024-03-23T15:46:33;2.37;;;2.17;;
3197;SDS011;1611;49.394;11.136;2024-03-23T15:48:59;3.13;;;2.03;;
3197;SDS011;1611;49.394;11.136;2024-03-23T15:51:25;3.20;;;2.10;;